Time;durP1;ratioP1;P1;durP2;ratioP2;P2;SDS_P1;SDS_P2;PMS_P1;PMS_P2;Temp;Humidity;BMP_temperature;BMP_pressure;BME280_temperature;BME280_humidity;BME280_pressure;Samples;Min_cycle;Max_cycle;Signal;HPM_P1;HPM_P2
2022/10/18 00:01:03;;;;;;;112.60;42.30;;;;;;;22.68;61.73;102610.75;5042344;28;20038;-68
2022/10/18 00:03:29;;;;;;;506.70;53.33;;;;;;;22.58;61.16;102616.16;5040637;28;20045;-68
2022/10/18 00:05:54;;;;;;;185.65;43.45;;;;;;;22.59;61.32;102612.31;5040833;28;20047;-67
2022/10/18 00:08:20;;;;;;;222.23;44.90;;;;;;;22.51;61.18;102604.53;5042199;28;20041;-69
2022/10/18 00:10:46;;;;;;;555.15;50.72;;;;;;;22.45;61.60;102608.31;5022772;28;20033;-68
2022/10/18 00:13:11;;;;;;;104.50;40.53;;;;;;;22.30;61.65;102619.97;5041263;28;20116;-68
2022/10/18 00:15:37;;;;;;;88.10;42.08;;;;;;;21.58;64.78;102621.38;5041622;28;20424;-68
2022/10/18 00:18:02;;;;;;;106.07;45.42;;;;;;;22.31;62.59;102623.56;5042044;28;20124;-68
2022/10/18 00:20:28;;;;;;;110.93;46.00;;;;;;;22.43;61.71;102602.28;5040207;28;20151;-70
2022/10/18 00:22:53;;;;;;;125.25;42.20;;;;;;;22.40;61.53;102611.88;5040447;28;20041;-69
2022/10/18 00:25:19;;;;;;;130.77;43.38;;;;;;;22.41;61.75;102609.94;5040054;28;20052;-68
2022/10/18 00:27:44;;;;;;;114.15;42.47;;;;;;;22.44;60.96;102603.94;5041536;28;20080;-69
2022/10/18 00:30:10;;;;;;;169.57;41.42;;;;;;;22.38;61.16;102611.28;5031493;28;20053;-69
2022/10/18 00:32:40;;;;;;;339.55;44.22;;;;;;;22.32;61.44;102608.75;5031404;28;20033;-68
2022/10/18 00:35:06;;;;;;;295.52;44.20;;;;;;;22.30;61.37;102610.94;5031514;28;20087;-68
2022/10/18 00:37:32;;;;;;;78.43;37.63;;;;;;;22.25;61.13;102600.75;5031216;28;20034;-69
2022/10/18 00:39:58;;;;;;;128.52;37.38;;;;;;;22.24;60.99;102612.81;5031329;28;20087;-67
2022/10/18 00:42:27;;;;;;;101.40;36.72;;;;;;;22.19;61.56;102615.47;5031173;28;20518;-68
2022/10/18 00:45:16;;;;;;;107.57;40.73;;;;;;;22.26;61.63;102620.75;5031044;28;20034;-68
2022/10/18 00:47:46;;;;;;;217.38;42.30;;;;;;;22.39;61.11;102623.06;5031540;28;20486;-68
2022/10/18 00:50:12;;;;;;;318.58;46.00;;;;;;;22.30;61.66;102628.22;5031383;28;20036;-69
2022/10/18 00:52:42;;;;;;;237.90;42.50;;;;;;;22.29;61.30;102626.53;5031126;28;20048;-68
2022/10/18 00:55:09;;;;;;;91.47;38.05;;;;;;;22.25;61.13;102625.41;5031076;28;20030;-69
2022/10/18 00:57:36;;;;;;;145.52;42.95;;;;;;;22.23;61.75;102629.50;5034092;28;20048;-68
2022/10/18 01:00:08;;;;;;;104.13;38.13;;;;;;;22.15;61.79;102619.81;5031120;28;20095;-69
2022/10/18 01:02:34;;;;;;;198.15;37.55;;;;;;;22.12;61.55;102623.09;5031248;28;20034;-68
2022/10/18 01:04:59;;;;;;;144.27;39.35;;;;;;;22.09;61.17;102623.63;5031308;28;20038;-68
2022/10/18 01:07:24;;;;;;;111.95;40.22;;;;;;;22.03;61.74;102615.59;5031153;28;20041;-69
2022/10/18 01:09:50;;;;;;;190.20;38.42;;;;;;;21.97;61.23;102617.47;5031097;28;20459;-68
2022/10/18 01:12:21;;;;;;;136.38;38.25;;;;;;;21.90;61.57;102616.81;5031223;28;20542;-68
2022/10/18 01:14:58;;;;;;;103.75;37.20;;;;;;;21.82;61.74;102620.03;5030801;28;20030;-68
2022/10/18 01:17:44;;;;;;;86.72;35.08;;;;;;;21.77;61.09;102622.69;5030918;28;20088;-67
2022/10/18 01:20:27;;;;;;;242.07;39.17;;;;;;;21.73;61.62;102622.38;5031461;28;20029;-69
2022/10/18 01:23:12;;;;;;;424.35;42.10;;;;;;;21.75;61.32;102622.94;5031221;28;20076;-68
2022/10/18 01:25:46;;;;;;;435.77;45.70;;;;;;;21.72;61.42;102620.69;5033902;28;20040;-67
2022/10/18 01:28:29;;;;;;;184.18;36.03;;;;;;;21.70;60.96;102620.13;5034409;28;20570;-67
2022/10/18 01:31:00;;;;;;;424.90;39.30;;;;;;;21.65;61.86;102624.72;5034334;28;20057;-69
2022/10/18 01:33:33;;;;;;;541.20;42.17;;;;;;;21.68;61.59;102629.66;5034000;28;20469;-69
2022/10/18 01:36:07;;;;;;;591.38;48.95;;;;;;;21.70;61.31;102632.97;5033828;28;20416;-69
2022/10/18 01:38:35;;;;;;;480.40;45.38;;;;;;;21.63;61.55;102621.41;5034420;28;20049;-69
2022/10/18 01:41:03;;;;;;;368.23;37.88;;;;;;;21.66;61.36;102615.44;5034650;28;20036;-69
2022/10/18 01:43:31;;;;;;;502.92;40.55;;;;;;;21.59;61.29;102618.38;5034200;28;20041;-69
2022/10/18 01:45:58;;;;;;;305.35;35.58;;;;;;;21.58;61.76;102616.69;5033843;28;20041;-68
2022/10/18 01:48:24;;;;;;;435.95;38.97;;;;;;;21.58;61.58;102627.66;5034277;28;20790;-69
2022/10/18 01:50:51;;;;;;;273.67;35.28;;;;;;;21.58;61.52;102633.13;5020456;28;20034;-69
2022/10/18 01:53:35;;;;;;;465.80;39.08;;;;;;;21.61;61.37;102638.09;5015220;28;20045;-69
2022/10/18 01:56:36;;;;;;;430.73;37.25;;;;;;;21.58;61.59;102637.78;4994730;28;20034;-68
2022/10/18 01:59:28;;;;;;;430.42;37.13;;;;;;;21.56;61.36;102643.50;4994920;28;20046;-69
2022/10/18 02:02:05;;;;;;;303.70;33.08;;;;;;;21.56;61.59;102631.75;4994713;28;20050;-69
2022/10/18 02:04:53;;;;;;;373.20;35.15;;;;;;;21.53;61.58;102633.06;4994226;28;20054;-68
2022/10/18 02:07:22;;;;;;;375.77;37.33;;;;;;;21.58;61.09;102635.06;4994428;28;20100;-69
2022/10/18 02:10:32;;;;;;;371.48;35.95;;;;;;;21.57;61.07;102639.69;4994517;28;20057;-68
2022/10/18 02:12:58;;;;;;;451.73;37.47;;;;;;;21.42;61.35;102633.19;4915040;29;20728;-68
2022/10/18 02:15:31;;;;;;;412.63;39.38;;;;;;;21.42;62.27;102628.56;4921005;29;20051;-69
2022/10/18 02:17:57;;;;;;;530.42;43.00;;;;;;;21.48;61.91;102632.19;4952813;29;20094;-69
2022/10/18 02:20:25;;;;;;;281.33;33.75;;;;;;;21.44;61.08;102626.41;4952663;29;20498;-69
2022/10/18 02:22:53;;;;;;;118.78;25.20;;;;;;;21.40;61.49;102636.19;4935976;29;20066;-68
2022/10/18 02:25:23;;;;;;;168.10;29.27;;;;;;;21.42;61.25;102638.66;4933439;29;20067;-68
2022/10/18 02:27:50;;;;;;;219.00;27.83;;;;;;;21.21;61.40;102642.22;4933473;29;20040;-68
2022/10/18 02:30:16;;;;;;;268.55;31.65;;;;;;;21.27;61.58;102632.97;4933292;29;20052;-68
2022/10/18 02:33:14;;;;;;;208.40;29.85;;;;;;;21.23;61.36;102632.66;4933524;29;20039;-68
2022/10/18 02:35:45;;;;;;;299.98;30.48;;;;;;;21.24;61.16;102634.31;4947815;28;20047;-71
2022/10/18 02:38:14;;;;;;;251.93;29.85;;;;;;;21.13;61.14;102628.97;4952831;29;20051;-68
2022/10/18 02:40:39;;;;;;;184.65;26.65;;;;;;;21.10;61.45;102629.47;4971440;28;20050;-68
2022/10/18 02:43:05;;;;;;;266.95;28.73;;;;;;;21.05;61.18;102630.19;4971655;28;20042;-68
2022/10/18 02:45:31;;;;;;;173.63;27.60;;;;;;;20.90;61.20;102630.78;4971350;28;20065;-68
2022/10/18 02:47:57;;;;;;;243.10;29.13;;;;;;;20.90;61.21;102638.16;5027211;28;20404;-68
2022/10/18 02:50:22;;;;;;;166.18;27.00;;;;;;;20.88;61.29;102638.41;5035322;28;20029;-68
2022/10/18 02:52:48;;;;;;;181.43;25.60;;;;;;;20.86;60.99;102635.09;5033408;28;20362;-68
2022/10/18 02:55:13;;;;;;;197.85;27.20;;;;;;;20.81;61.45;102626.00;5032888;28;20508;-68
2022/10/18 02:57:38;;;;;;;194.43;26.70;;;;;;;20.71;61.27;102632.13;5032922;28;20583;-68
2022/10/18 03:00:05;;;;;;;191.48;26.95;;;;;;;20.74;61.34;102636.25;5033124;28;20037;-69
2022/10/18 03:02:30;;;;;;;193.82;27.40;;;;;;;20.75;61.25;102622.38;5032732;28;20044;-68
2022/10/18 03:04:56;;;;;;;230.65;28.08;;;;;;;20.68;61.01;102621.69;5033206;28;20057;-68
2022/10/18 03:07:22;;;;;;;195.80;26.98;;;;;;;20.57;61.03;102627.25;5032468;28;20170;-67
2022/10/18 03:09:47;;;;;;;283.27;28.23;;;;;;;20.56;61.02;102629.13;5032556;28;20135;-68
2022/10/18 03:12:12;;;;;;;217.65;25.67;;;;;;;20.45;61.58;102632.78;5032184;28;20033;-68
2022/10/18 03:14:38;;;;;;;165.98;25.17;;;;;;;20.39;61.65;102638.41;5032360;28;20120;-68
2022/10/18 03:17:03;;;;;;;259.75;27.60;;;;;;;20.37;61.40;102635.91;5032792;28;20060;-67
2022/10/18 03:19:29;;;;;;;192.55;26.13;;;;;;;20.39;61.34;102639.22;5032246;28;20069;-69
2022/10/18 03:21:54;;;;;;;199.15;24.60;;;;;;;20.36;61.54;102639.75;5032118;28;20033;-68
2022/10/18 03:24:19;;;;;;;176.25;24.88;;;;;;;20.39;61.41;102643.84;5032164;28;20041;-69
2022/10/18 03:26:45;;;;;;;251.63;26.05;;;;;;;20.40;61.07;102645.53;5032108;28;20080;-70
2022/10/18 03:29:10;;;;;;;147.90;23.38;;;;;;;20.38;61.31;102643.06;5032684;28;20033;-68
2022/10/18 03:31:36;;;;;;;193.70;23.85;;;;;;;20.45;60.64;102638.25;5032106;28;20490;-68
2022/10/18 03:34:01;;;;;;;99.03;22.48;;;;;;;20.41;60.90;102647.16;5031979;28;20505;-68
2022/10/18 03:36:27;;;;;;;74.20;21.17;;;;;;;20.47;60.70;102646.19;5031807;28;20497;-68
2022/10/18 03:38:52;;;;;;;100.63;23.00;;;;;;;20.29;61.14;102638.22;5032163;28;20038;-69
2022/10/18 03:41:19;;;;;;;83.88;21.40;;;;;;;20.26;60.91;102634.09;5031041;28;20104;-67
2022/10/18 03:43:45;;;;;;;103.22;21.48;;;;;;;20.26;61.16;102642.28;5032114;28;20083;-68
2022/10/18 03:46:10;;;;;;;43.45;18.88;;;;;;;20.23;61.02;102639.19;5034376;28;20032;-69
2022/10/18 03:48:35;;;;;;;128.05;22.10;;;;;;;20.26;61.01;102642.28;5031654;28;20040;-69
2022/10/18 03:51:01;;;;;;;25.35;17.75;;;;;;;20.17;61.12;102637.44;5031494;28;20046;-69
2022/10/18 03:53:26;;;;;;;168.52;22.35;;;;;;;20.09;61.16;102642.19;5032067;28;20386;-68
2022/10/18 03:55:53;;;;;;;112.68;22.88;;;;;;;20.09;61.49;102636.75;5032496;28;20022;-67
2022/10/18 03:58:19;;;;;;;94.32;21.10;;;;;;;20.29;60.79;102641.78;5031621;28;20125;-67
2022/10/18 04:00:44;;;;;;;188.35;24.52;;;;;;;20.29;60.98;102644.50;5030041;28;20069;-67
2022/10/18 04:03:10;;;;;;;86.60;20.65;;;;;;;20.30;60.72;102648.06;5029435;28;20068;-70
2022/10/18 04:05:35;;;;;;;137.73;24.50;;;;;;;20.24;60.94;102643.59;5026209;28;20521;-69
2022/10/18 04:08:02;;;;;;;117.65;20.75;;;;;;;20.21;61.69;102638.59;5022630;28;20033;-69
2022/10/18 04:10:28;;;;;;;163.18;24.13;;;;;;;19.95;62.65;102638.09;5021385;28;20041;-68
2022/10/18 04:12:53;;;;;;;220.18;26.85;;;;;;;20.11;62.14;102636.50;5027089;28;20037;-69
2022/10/18 04:15:18;;;;;;;113.10;22.65;;;;;;;20.20;61.78;102640.53;5034360;28;20041;-67
2022/10/18 04:17:44;;;;;;;136.13;24.00;;;;;;;20.28;61.49;102640.13;5051406;28;20389;-68
2022/10/18 04:20:10;;;;;;;126.53;22.60;;;;;;;20.23;61.80;102641.91;5051847;28;20052;-71
2022/10/18 04:22:35;;;;;;;179.68;24.13;;;;;;;20.19;62.02;102638.84;5035434;28;20033;-67
2022/10/18 04:25:01;;;;;;;168.23;23.60;;;;;;;20.11;62.26;102639.22;5031494;28;20037;-69
2022/10/18 04:27:26;;;;;;;75.55;19.55;;;;;;;20.20;61.58;102629.63;5031476;28;20037;-69
2022/10/18 04:29:51;;;;;;;152.55;23.13;;;;;;;20.15;61.76;102634.94;5031402;28;20041;-70
2022/10/18 04:32:17;;;;;;;112.65;19.52;;;;;;;20.26;61.56;102636.00;5030793;28;20057;-68
2022/10/18 04:34:42;;;;;;;59.85;18.83;;;;;;;20.14;61.54;102634.13;5035562;28;20060;-69
2022/10/18 04:37:08;;;;;;;145.63;22.55;;;;;;;20.11;61.57;102636.50;5039034;28;20038;-69
2022/10/18 04:39:33;;;;;;;109.32;20.85;;;;;;;20.10;61.41;102640.31;5029621;28;20033;-69
2022/10/18 04:41:58;;;;;;;94.60;18.48;;;;;;;19.99;62.03;102642.00;5030199;28;20048;-68
2022/10/18 04:44:24;;;;;;;51.53;19.38;;;;;;;20.03;61.74;102642.34;5033264;28;20474;-67
2022/10/18 04:46:49;;;;;;;117.47;21.50;;;;;;;20.00;61.70;102643.69;5034258;28;20049;-68
2022/10/18 04:49:14;;;;;;;142.70;22.27;;;;;;;20.02;61.64;102646.16;5047885;28;20036;-67
2022/10/18 04:51:40;;;;;;;140.57;18.65;;;;;;;19.72;62.63;102640.94;5031204;28;20389;-68
2022/10/18 04:54:05;;;;;;;120.82;19.90;;;;;;;19.94;62.27;102643.81;5031297;28;20033;-70
2022/10/18 04:56:31;;;;;;;173.38;22.40;;;;;;;20.04;61.72;102644.84;5034875;28;20032;-69
2022/10/18 04:58:58;;;;;;;161.15;22.27;;;;;;;20.10;61.64;102649.34;5032148;28;20037;-69
2022/10/18 05:01:23;;;;;;;100.32;19.50;;;;;;;19.49;63.97;102648.34;5034942;28;20723;-69
2022/10/18 05:03:53;;;;;;;223.85;21.73;;;;;;;19.59;64.06;102648.56;5040682;28;20034;-69
2022/10/18 05:06:18;;;;;;;233.02;23.05;;;;;;;19.96;62.25;102649.84;5040870;28;20041;-69
2022/10/18 05:08:44;;;;;;;136.43;22.83;;;;;;;20.05;61.92;102651.13;5044282;28;20124;-69
2022/10/18 05:11:09;;;;;;;270.30;24.05;;;;;;;20.13;62.11;102648.84;5047198;28;20037;-70
2022/10/18 05:13:35;;;;;;;182.73;20.42;;;;;;;19.62;64.18;102654.34;5054668;28;20148;-70
2022/10/18 05:16:01;;;;;;;134.35;21.23;;;;;;;19.49;64.94;102649.19;5045439;28;20041;-69
2022/10/18 05:18:26;;;;;;;176.82;22.77;;;;;;;19.92;63.11;102654.97;5034346;28;20045;-69
2022/10/18 05:20:52;;;;;;;189.65;22.27;;;;;;;20.23;62.27;102648.22;5034562;28;20759;-70
2022/10/18 05:23:17;;;;;;;130.48;20.40;;;;;;;20.31;61.85;102658.75;5034560;28;20034;-70
2022/10/18 05:25:43;;;;;;;155.80;25.08;;;;;;;20.13;62.14;102664.38;5034779;28;20045;-68
2022/10/18 05:28:09;;;;;;;172.25;21.23;;;;;;;20.12;62.21;102666.31;5034618;28;20037;-69
2022/10/18 05:30:37;;;;;;;217.52;28.00;;;;;;;20.19;62.28;102663.44;5034475;28;20041;-68
2022/10/18 05:33:02;;;;;;;149.70;21.95;;;;;;;20.11;62.71;102661.06;5034250;28;20041;-69
2022/10/18 05:35:28;;;;;;;150.63;23.75;;;;;;;20.05;62.79;102662.88;5034214;28;20057;-68
2022/10/18 05:37:53;;;;;;;136.10;21.83;;;;;;;20.21;62.32;102671.38;5034682;28;20041;-69
2022/10/18 05:40:18;;;;;;;118.63;23.30;;;;;;;19.92;63.58;102671.34;5036820;28;20461;-67
2022/10/18 05:42:44;;;;;;;76.13;18.17;;;;;;;19.36;65.40;102670.41;5034213;28;20038;-68
2022/10/18 05:45:09;;;;;;;144.27;21.33;;;;;;;19.40;66.08;102680.59;5034003;28;20410;-68
2022/10/18 05:47:35;;;;;;;208.07;21.80;;;;;;;19.24;66.33;102682.13;5034087;28;20071;-68
2022/10/18 05:50:00;;;;;;;121.80;19.80;;;;;;;19.08;66.67;102696.47;5034114;28;20045;-69
2022/10/18 05:52:25;;;;;;;130.15;21.60;;;;;;;19.11;66.96;102696.00;5033877;28;20449;-69
2022/10/18 05:54:51;;;;;;;71.70;20.17;;;;;;;19.49;65.62;102695.53;5034040;28;20041;-68
2022/10/18 05:57:16;;;;;;;101.70;19.17;;;;;;;19.30;65.70;102692.06;5034050;28;20038;-67
2022/10/18 05:59:42;;;;;;;135.77;20.75;;;;;;;19.27;66.00;102699.91;5033966;28;20037;-70
2022/10/18 06:02:10;;;;;;;70.75;18.33;;;;;;;19.15;66.54;102704.53;5034430;28;20044;-68
2022/10/18 06:04:35;;;;;;;56.60;19.13;;;;;;;18.80;67.92;102703.66;5033684;28;20037;-68
2022/10/18 06:07:00;;;;;;;82.05;19.83;;;;;;;18.90;67.18;102702.03;5033411;28;20050;-69
2022/10/18 06:09:27;;;;;;;39.33;18.80;;;;;;;18.99;66.60;102710.66;5033663;28;20397;-67
2022/10/18 06:11:52;;;;;;;69.05;17.98;;;;;;;19.20;65.84;102716.38;5033684;28;20124;-68
2022/10/18 06:14:18;;;;;;;61.80;18.13;;;;;;;19.15;66.22;102715.41;5033521;28;20087;-67
2022/10/18 06:16:43;;;;;;;111.90;19.10;;;;;;;19.46;64.55;102711.56;5033706;28;20079;-69
2022/10/18 06:19:09;;;;;;;54.78;18.13;;;;;;;19.76;63.44;102715.75;5034224;28;20041;-68
2022/10/18 06:21:34;;;;;;;110.93;19.15;;;;;;;19.57;63.93;102722.44;5042388;28;20044;-68
2022/10/18 06:24:00;;;;;;;69.18;19.02;;;;;;;19.48;63.80;102733.97;5025397;28;20033;-68
2022/10/18 06:26:26;;;;;;;60.35;17.65;;;;;;;19.21;64.85;102737.13;5043629;28;20028;-68
2022/10/18 06:28:52;;;;;;;80.95;17.45;;;;;;;19.45;63.79;102737.16;5042271;28;20104;-68
2022/10/18 06:31:19;;;;;;;59.30;18.45;;;;;;;19.39;64.24;102738.09;5041389;28;20052;-70
2022/10/18 06:33:44;;;;;;;61.53;17.63;;;;;;;19.31;64.49;102744.72;5042230;28;20520;-70
2022/10/18 06:36:13;;;;;;;53.10;17.05;;;;;;;19.28;64.52;102748.72;5047069;28;20041;-69
2022/10/18 06:38:39;;;;;;;46.15;17.10;;;;;;;19.37;64.22;102751.97;5052779;28;20029;-69
2022/10/18 06:41:06;;;;;;;40.72;16.05;;;;;;;18.88;65.55;102745.03;5039590;28;20040;-69
2022/10/18 06:43:31;;;;;;;59.72;18.92;;;;;;;18.71;66.37;102744.00;5042092;28;20086;-68
2022/10/18 06:45:57;;;;;;;49.35;16.30;;;;;;;18.33;67.19;102740.78;5043080;28;20045;-69
2022/10/18 06:48:22;;;;;;;69.15;15.93;;;;;;;18.70;66.37;102746.97;5042651;28;20382;-69
2022/10/18 06:50:58;;;;;;;58.08;16.25;;;;;;;18.01;69.16;102748.31;5037993;28;20381;-68
2022/10/18 06:53:28;;;;;;;51.05;16.05;;;;;;;18.42;66.95;102748.44;5031651;28;20043;-69
2022/10/18 06:56:04;;;;;;;103.35;18.20;;;;;;;18.74;66.84;102749.00;5032001;28;20024;-69
2022/10/18 06:58:30;;;;;;;50.22;15.38;;;;;;;18.31;67.92;102753.78;5029021;28;20033;-69
2022/10/18 07:00:56;;;;;;;76.93;15.80;;;;;;;18.05;68.42;102757.69;5030051;28;20428;-70
2022/10/18 07:03:22;;;;;;;129.60;19.73;;;;;;;18.78;66.24;102762.97;5031346;28;20041;-69
2022/10/18 07:05:48;;;;;;;109.90;19.60;;;;;;;18.45;66.94;102765.34;5031345;28;20072;-69
2022/10/18 07:08:14;;;;;;;115.90;19.52;;;;;;;18.98;65.03;102769.81;5030484;28;20030;-67
2022/10/18 07:10:39;;;;;;;136.02;16.30;;;;;;;18.72;65.94;102767.47;5031440;28;20044;-69
2022/10/18 07:13:04;;;;;;;115.65;16.30;;;;;;;18.91;65.03;102771.78;5031111;28;20113;-70
2022/10/18 07:15:30;;;;;;;207.73;20.13;;;;;;;19.03;64.97;102775.38;5034061;28;20030;-68
2022/10/18 07:17:55;;;;;;;213.13;19.30;;;;;;;19.05;65.30;102780.56;5031137;28;20044;-70
2022/10/18 07:20:21;;;;;;;110.00;15.20;;;;;;;18.79;66.28;102786.47;5032612;28;20041;-70
2022/10/18 07:22:46;;;;;;;157.23;15.55;;;;;;;18.52;67.22;102796.03;5032113;28;20038;-70
2022/10/18 07:25:12;;;;;;;151.27;18.65;;;;;;;18.24;69.83;102802.03;5032376;28;20036;-68
2022/10/18 07:27:39;;;;;;;175.30;19.13;;;;;;;18.91;66.10;102787.28;5032335;28;20041;-69
2022/10/18 07:30:07;;;;;;;135.02;17.95;;;;;;;18.84;66.31;102786.56;5032266;28;20038;-72
2022/10/18 07:32:32;;;;;;;159.25;15.60;;;;;;;18.83;66.37;102784.94;5034680;28;20044;-68
2022/10/18 07:34:57;;;;;;;121.47;15.90;;;;;;;18.65;67.35;102793.16;5032400;28;20509;-69
2022/10/18 07:37:23;;;;;;;193.88;16.83;;;;;;;18.31;68.31;102803.63;5032131;28;20502;-68
2022/10/18 07:39:48;;;;;;;134.38;22.23;;;;;;;18.98;66.82;102813.41;5032095;28;20034;-67
2022/10/18 07:42:14;;;;;;;113.93;14.68;;;;;;;19.60;64.83;102809.22;5032177;28;20117;-72
2022/10/18 07:44:39;;;;;;;131.30;15.73;;;;;;;19.50;64.34;102802.72;5031727;28;20701;-69
2022/10/18 07:47:04;;;;;;;215.27;18.92;;;;;;;19.75;64.08;102808.78;5039483;28;20589;-69
2022/10/18 07:49:30;;;;;;;151.13;16.67;;;;;;;19.63;64.35;102814.22;5041149;28;20029;-68
2022/10/18 07:51:55;;;;;;;155.93;15.27;;;;;;;19.48;65.19;102811.13;5041036;28;20037;-68
2022/10/18 07:54:21;;;;;;;100.20;13.68;;;;;;;18.87;67.37;102816.09;5042202;28;20051;-70
2022/10/18 07:56:46;;;;;;;152.43;16.65;;;;;;;19.78;64.36;102809.13;5037396;28;20559;-69
2022/10/18 07:59:12;;;;;;;172.68;15.88;;;;;;;19.72;64.11;102810.06;5041598;28;20025;-69
2022/10/18 08:01:37;;;;;;;114.95;13.57;;;;;;;19.74;64.52;102815.28;5041010;28;20061;-71
2022/10/18 08:04:03;;;;;;;132.25;15.70;;;;;;;20.13;63.33;102815.34;5040712;28;20029;-69
2022/10/18 08:06:28;;;;;;;105.13;18.25;;;;;;;19.25;66.01;102816.53;5042000;28;20478;-69
2022/10/18 08:08:53;;;;;;;62.55;15.02;;;;;;;19.74;64.53;102813.38;5040358;28;20048;-70
2022/10/18 08:11:21;;;;;;;68.85;15.70;;;;;;;19.57;64.68;102828.81;5041120;28;20481;-70
2022/10/18 08:13:47;;;;;;;36.92;13.38;;;;;;;19.30;65.62;102833.84;5042720;28;20017;-70
2022/10/18 08:16:17;;;;;;;48.00;15.05;;;;;;;19.09;67.00;102839.00;5040445;28;20074;-70
2022/10/18 08:18:42;;;;;;;50.88;15.90;;;;;;;19.61;65.50;102821.81;5039481;28;20359;-70
2022/10/18 08:21:09;;;;;;;24.33;15.30;;;;;;;19.56;65.61;102823.56;5042384;28;20037;-67
2022/10/18 08:23:34;;;;;;;27.08;16.08;;;;;;;19.96;64.37;102821.78;5040483;28;20105;-68
2022/10/18 08:26:01;;;;;;;24.67;15.20;;;;;;;19.53;65.26;102824.91;5041094;28;20123;-69
2022/10/18 08:28:27;;;;;;;24.33;17.10;;;;;;;19.75;65.16;102831.41;5043398;28;20529;-69
2022/10/18 08:30:52;;;;;;;25.27;15.52;;;;;;;20.17;63.68;102813.81;5040122;28;20183;-70
2022/10/18 08:33:17;;;;;;;27.27;16.30;;;;;;;19.24;66.72;102820.34;5042260;28;20393;-69
2022/10/18 08:35:52;;;;;;;31.00;17.25;;;;;;;19.26;67.22;102826.38;5045563;28;20052;-69
2022/10/18 08:38:18;;;;;;;26.75;17.02;;;;;;;20.13;64.68;102834.47;5044603;28;20416;-68
2022/10/18 08:40:43;;;;;;;32.35;17.98;;;;;;;20.20;64.64;102826.19;5044404;28;20033;-68
2022/10/18 08:43:25;;;;;;;26.90;17.73;;;;;;;20.41;64.05;102828.25;5044214;28;20032;-71
2022/10/18 08:45:53;;;;;;;30.30;17.17;;;;;;;20.30;64.76;102831.88;5044274;28;20392;-69
2022/10/18 08:48:43;;;;;;;36.40;19.83;;;;;;;19.93;66.14;102836.75;5042688;28;20276;-72
2022/10/18 08:51:34;;;;;;;31.30;15.80;;;;;;;18.60;70.72;102842.00;4994746;28;20423;-69
2022/10/18 08:54:04;;;;;;;37.60;18.88;;;;;;;19.72;68.50;102831.06;4993183;28;20042;-70
2022/10/18 08:56:32;;;;;;;34.75;17.63;;;;;;;19.89;67.78;102835.56;4993225;28;20030;-69
2022/10/18 08:58:57;;;;;;;31.90;18.35;;;;;;;20.17;66.96;102847.66;4993497;28;20116;-69
2022/10/18 09:01:25;;;;;;;29.88;17.15;;;;;;;19.73;68.28;102839.03;4992958;28;20038;-68
2022/10/18 09:04:06;;;;;;;41.25;18.23;;;;;;;20.26;65.89;102836.16;4993137;28;20094;-70
2022/10/18 09:06:43;;;;;;;38.05;16.67;;;;;;;21.12;62.95;102835.94;4992591;28;20046;-68
2022/10/18 09:09:39;;;;;;;34.20;16.25;;;;;;;21.29;62.75;102833.19;4992584;28;20030;-68
2022/10/18 09:12:33;;;;;;;44.83;16.48;;;;;;;20.77;63.96;102841.56;4972787;28;20130;-69
2022/10/18 09:15:20;;;;;;;33.05;17.55;;;;;;;21.09;63.58;102843.81;4973587;28;20510;-70
2022/10/18 09:18:00;;;;;;;37.20;16.92;;;;;;;20.52;64.83;102851.97;4992635;28;20035;-70
2022/10/18 09:20:54;;;;;;;32.42;17.17;;;;;;;20.91;64.48;102859.28;4992741;28;20026;-68
2022/10/18 09:23:25;;;;;;;35.80;12.90;;;;;;;20.90;63.53;102863.13;4992411;28;20062;-69
2022/10/18 09:26:02;;;;;;;30.55;14.68;;;;;;;20.80;64.63;102860.19;4993010;28;20030;-68
2022/10/18 09:28:39;;;;;;;32.75;14.23;;;;;;;20.12;66.76;102857.38;5005952;28;20042;-72
2022/10/18 09:31:27;;;;;;;28.77;11.15;;;;;;;19.20;68.96;102857.31;5014412;28;20061;-70
2022/10/18 09:34:07;;;;;;;30.95;11.35;;;;;;;20.99;64.24;102866.28;5014637;28;20406;-68
2022/10/18 09:36:36;;;;;;;27.25;11.25;;;;;;;20.79;63.59;102865.91;5014329;28;20045;-69
2022/10/18 09:39:13;;;;;;;38.90;9.65;;;;;;;20.47;63.66;102860.06;5017782;28;20121;-71
2022/10/18 09:42:16;;;;;;;28.50;12.63;;;;;;;20.80;64.79;102853.88;5034179;28;20053;-69
2022/10/18 09:44:52;;;;;;;26.02;8.45;;;;;;;20.83;63.01;102867.06;5033335;28;20113;-69
2022/10/18 09:47:27;;;;;;;20.65;9.88;;;;;;;21.26;62.21;102872.84;5034580;28;20079;-69
2022/10/18 09:50:15;;;;;;;27.77;9.77;;;;;;;21.14;64.26;102869.31;5034281;28;20034;-68
2022/10/18 09:52:52;;;;;;;32.00;9.55;;;;;;;20.97;62.11;102874.72;5034069;28;20038;-71
2022/10/18 09:55:25;;;;;;;30.23;10.88;;;;;;;20.17;65.82;102881.22;5034050;28;20026;-69
2022/10/18 09:57:55;;;;;;;20.92;7.63;;;;;;;20.31;64.33;102877.19;5033948;28;20052;-70
2022/10/18 10:00:27;;;;;;;23.03;6.93;;;;;;;21.51;61.08;102876.00;5033858;28;20083;-69
2022/10/18 10:02:53;;;;;;;24.70;7.90;;;;;;;20.36;64.60;102884.69;5033985;28;20112;-69
2022/10/18 10:05:19;;;;;;;26.20;10.10;;;;;;;20.51;64.19;102879.53;5033924;28;20112;-71
2022/10/18 10:07:46;;;;;;;23.50;8.15;;;;;;;19.97;65.29;102889.78;5034034;28;20036;-71
2022/10/18 10:10:24;;;;;;;27.35;8.38;;;;;;;20.00;66.62;102885.75;5036159;28;20036;-70
2022/10/18 10:13:03;;;;;;;23.10;5.80;;;;;;;20.42;62.93;102889.19;5043506;28;20179;-70
2022/10/18 10:15:29;;;;;;;17.25;5.00;;;;;;;20.48;63.71;102888.22;5043278;28;20056;-71
2022/10/18 10:18:45;;;;;;;22.33;5.40;;;;;;;20.04;64.98;102889.66;5040753;28;20033;-69
2022/10/18 10:21:15;;;;;;;25.00;5.15;;;;;;;20.85;61.50;102890.34;5032600;28;20051;-69
2022/10/18 10:23:49;;;;;;;19.58;4.13;;;;;;;20.60;61.31;102892.56;5039768;28;20038;-68
2022/10/18 10:26:26;;;;;;;14.07;2.63;;;;;;;20.66;62.42;102896.22;5036627;28;20112;-69
2022/10/18 10:28:51;;;;;;;13.40;2.10;;;;;;;19.79;60.69;102892.63;5035995;28;20076;-69
2022/10/18 10:31:23;;;;;;;14.68;3.05;;;;;;;20.06;60.55;102888.38;5039719;28;20041;-69
2022/10/18 10:34:02;;;;;;;15.63;2.88;;;;;;;20.28;61.22;102890.50;5040430;28;20053;-69
2022/10/18 10:36:29;;;;;;;12.73;2.28;;;;;;;21.16;57.84;102883.59;5039897;28;20044;-69
2022/10/18 10:39:03;;;;;;;17.50;2.33;;;;;;;20.93;57.34;102894.59;5039227;28;20076;-68
2022/10/18 10:41:29;;;;;;;10.23;2.25;;;;;;;21.28;55.47;102888.97;5039008;28;20035;-68
2022/10/18 10:43:55;;;;;;;12.80;2.08;;;;;;;20.89;56.24;102907.09;5033189;28;20120;-69
2022/10/18 10:46:22;;;;;;;10.27;2.08;;;;;;;21.27;55.25;102899.09;5030338;28;20502;-68
2022/10/18 10:48:56;;;;;;;14.63;1.75;;;;;;;21.44;54.93;102902.69;5030321;28;20057;-66
2022/10/18 10:51:31;;;;;;;9.50;1.35;;;;;;;21.03;56.26;102904.94;5030047;28;20089;-67
2022/10/18 10:54:03;;;;;;;11.90;2.50;;;;;;;21.42;55.25;102909.47;5030291;28;20124;-67
2022/10/18 10:56:32;;;;;;;16.90;2.70;;;;;;;21.56;54.61;102916.28;5030405;28;20049;-68
2022/10/18 10:59:08;;;;;;;12.70;1.60;;;;;;;22.01;54.39;102921.69;5033650;28;20486;-68
2022/10/18 11:01:35;;;;;;;11.38;2.08;;;;;;;22.03;54.66;102914.91;5032794;28;20038;-68
2022/10/18 11:04:28;;;;;;;8.10;1.58;;;;;;;21.63;54.16;102912.31;5032777;28;20042;-67
2022/10/18 11:07:03;;;;;;;10.45;1.70;;;;;;;20.96;56.82;102924.16;5032283;28;20050;-68
2022/10/18 11:09:36;;;;;;;15.40;2.20;;;;;;;21.10;56.96;102922.00;5027464;28;20034;-69
2022/10/18 11:12:18;;;;;;;13.07;2.42;;;;;;;21.99;54.59;102918.38;5030515;28;20048;-71
2022/10/18 11:15:08;;;;;;;9.73;2.42;;;;;;;20.98;56.49;102922.03;5030572;28;20099;-67
2022/10/18 11:18:03;;;;;;;15.95;2.35;;;;;;;21.69;56.36;102924.16;5052401;27;141508;-69